sensor_id;sensor_type;location;lat;lon;timestamp;P1;durP1;ratioP1;P2;durP2;ratioP2
24799;SDS011;12897;50.812;4.430;2024-01-11T00:01:56;24.10;;;9.98;;
24799;SDS011;12897;50.812;4.430;2024-01-11T00:04:24;26.33;;;8.40;;
24799;SDS011;12897;50.812;4.430;2024-01-11T00:06:52;26.48;;;9.48;;
24799;SDS011;12897;50.812;4.430;2024-01-11T00:09:19;28.40;;;9.93;;
24799;SDS011;12897;50.812;4.430;2024-01-11T00:11:47;27.93;;;8.83;;
24799;SDS011;12897;50.812;4.430;2024-01-11T00:14:14;30.70;;;8.85;;
24799;SDS011;12897;50.812;4.430;2024-01-11T00:16:42;26.48;;;9.68;;
24799;SDS011;12897;50.812;4.430;2024-01-11T00:19:11;27.17;;;9.27;;
24799;SDS011;12897;50.812;4.430;2024-01-11T00:21:39;27.37;;;9.88;;
24799;SDS011;12897;50.812;4.430;2024-01-11T00:24:06;23.47;;;9.28;;
24799;SDS011;12897;50.812;4.430;2024-01-11T00:26:34;33.90;;;9.35;;
24799;SDS011;12897;50.812;4.430;2024-01-11T00:29:05;33.92;;;9.50;;
24799;SDS011;12897;50.812;4.430;2024-01-11T00:31:33;23.27;;;9.10;;
24799;SDS011;12897;50.812;4.430;2024-01-11T00:34:01;41.45;;;11.48;;
24799;SDS011;12897;50.812;4.430;2024-01-11T00:36:28;25.52;;;7.97;;
24799;SDS011;12897;50.812;4.430;2024-01-11T00:38:56;24.02;;;9.28;;
24799;SDS011;12897;50.812;4.430;2024-01-11T00:41:24;25.68;;;10.08;;
24799;SDS011;12897;50.812;4.430;2024-01-11T00:43:52;33.42;;;9.93;;
24799;SDS011;12897;50.812;4.430;2024-01-11T00:46:19;25.65;;;8.78;;
24799;SDS011;12897;50.812;4.430;2024-01-11T00:48:47;31.25;;;9.30;;
24799;SDS011;12897;50.812;4.430;2024-01-11T00:51:15;25.62;;;9.83;;
24799;SDS011;12897;50.812;4.430;2024-01-11T00:53:42;30.62;;;8.60;;
24799;SDS011;12897;50.812;4.430;2024-01-11T00:56:17;25.02;;;10.48;;
24799;SDS011;12897;50.812;4.430;2024-01-11T00:58:45;28.17;;;9.88;;
24799;SDS011;12897;50.812;4.430;2024-01-11T01:01:13;30.32;;;9.50;;
24799;SDS011;12897;50.812;4.430;2024-01-11T01:03:41;30.82;;;8.68;;
24799;SDS011;12897;50.812;4.430;2024-01-11T01:06:21;27.55;;;9.70;;
24799;SDS011;12897;50.812;4.430;2024-01-11T01:08:50;15.43;;;7.25;;
24799;SDS011;12897;50.812;4.430;2024-01-11T01:11:18;24.92;;;9.10;;
24799;SDS011;12897;50.812;4.430;2024-01-11T01:13:45;40.43;;;9.83;;
24799;SDS011;12897;50.812;4.430;2024-01-11T01:16:13;23.85;;;9.28;;
24799;SDS011;12897;50.812;4.430;2024-01-11T01:18:42;30.65;;;9.18;;
24799;SDS011;12897;50.812;4.430;2024-01-11T01:21:10;27.40;;;10.28;;
24799;SDS011;12897;50.812;4.430;2024-01-11T01:23:37;35.90;;;8.75;;
24799;SDS011;12897;50.812;4.430;2024-01-11T01:26:06;33.20;;;10.72;;
24799;SDS011;12897;50.812;4.430;2024-01-11T01:28:34;26.02;;;9.95;;
24799;SDS011;12897;50.812;4.430;2024-01-11T01:31:02;28.55;;;9.65;;
24799;SDS011;12897;50.812;4.430;2024-01-11T01:33:29;33.95;;;9.35;;
24799;SDS011;12897;50.812;4.430;2024-01-11T01:35:57;39.38;;;10.95;;
24799;SDS011;12897;50.812;4.430;2024-01-11T01:38:25;30.75;;;10.98;;
24799;SDS011;12897;50.812;4.430;2024-01-11T01:40:52;22.20;;;9.73;;
24799;SDS011;12897;50.812;4.430;2024-01-11T01:43:20;27.35;;;9.25;;
24799;SDS011;12897;50.812;4.430;2024-01-11T01:45:47;32.40;;;10.05;;
24799;SDS011;12897;50.812;4.430;2024-01-11T01:48:17;21.05;;;8.63;;
24799;SDS011;12897;50.812;4.430;2024-01-11T01:50:46;27.65;;;9.35;;
24799;SDS011;12897;50.812;4.430;2024-01-11T01:56:05;27.75;;;10.58;;
24799;SDS011;12897;50.812;4.430;2024-01-11T01:58:45;33.65;;;9.30;;
24799;SDS011;12897;50.812;4.430;2024-01-11T02:01:12;31.85;;;9.80;;
24799;SDS011;12897;50.812;4.430;2024-01-11T02:03:52;28.42;;;10.20;;
24799;SDS011;12897;50.812;4.430;2024-01-11T02:06:26;28.07;;;10.05;;
24799;SDS011;12897;50.812;4.430;2024-01-11T02:09:02;25.43;;;9.53;;
24799;SDS011;12897;50.812;4.430;2024-01-11T02:11:41;31.73;;;9.50;;
24799;SDS011;12897;50.812;4.430;2024-01-11T02:14:17;22.27;;;9.83;;
24799;SDS011;12897;50.812;4.430;2024-01-11T02:16:51;31.27;;;10.32;;
24799;SDS011;12897;50.812;4.430;2024-01-11T02:19:24;22.32;;;8.80;;
24799;SDS011;12897;50.812;4.430;2024-01-11T02:21:55;23.83;;;9.88;;
24799;SDS011;12897;50.812;4.430;2024-01-11T02:24:26;27.40;;;9.55;;
24799;SDS011;12897;50.812;4.430;2024-01-11T02:26:57;24.32;;;8.73;;
24799;SDS011;12897;50.812;4.430;2024-01-11T02:29:27;25.17;;;9.08;;
24799;SDS011;12897;50.812;4.430;2024-01-11T02:31:55;23.75;;;8.50;;
24799;SDS011;12897;50.812;4.430;2024-01-11T02:34:24;31.37;;;9.70;;
24799;SDS011;12897;50.812;4.430;2024-01-11T02:36:55;25.45;;;7.80;;
24799;SDS011;12897;50.812;4.430;2024-01-11T02:39:28;20.17;;;9.25;;
24799;SDS011;12897;50.812;4.430;2024-01-11T02:41:53;23.30;;;9.18;;
24799;SDS011;12897;50.812;4.430;2024-01-11T02:44:23;27.45;;;9.18;;
24799;SDS011;12897;50.812;4.430;2024-01-11T02:46:51;30.90;;;9.50;;
24799;SDS011;12897;50.812;4.430;2024-01-11T02:49:18;30.12;;;10.23;;
24799;SDS011;12897;50.812;4.430;2024-01-11T02:51:46;36.75;;;10.98;;
24799;SDS011;12897;50.812;4.430;2024-01-11T02:54:14;24.60;;;10.18;;
24799;SDS011;12897;50.812;4.430;2024-01-11T02:56:41;25.88;;;9.18;;
24799;SDS011;12897;50.812;4.430;2024-01-11T02:59:09;33.02;;;10.85;;
24799;SDS011;12897;50.812;4.430;2024-01-11T03:01:36;31.10;;;10.03;;
24799;SDS011;12897;50.812;4.430;2024-01-11T03:04:05;25.68;;;10.40;;
24799;SDS011;12897;50.812;4.430;2024-01-11T03:06:33;30.45;;;9.58;;
24799;SDS011;12897;50.812;4.430;2024-01-11T03:09:13;34.53;;;11.33;;
24799;SDS011;12897;50.812;4.430;2024-01-11T03:11:47;24.60;;;9.40;;
24799;SDS011;12897;50.812;4.430;2024-01-11T03:19:38;34.45;;;10.38;;
24799;SDS011;12897;50.812;4.430;2024-01-11T03:22:13;26.30;;;9.40;;
24799;SDS011;12897;50.812;4.430;2024-01-11T03:24:40;23.47;;;7.92;;
24799;SDS011;12897;50.812;4.430;2024-01-11T03:27:08;29.07;;;9.68;;
24799;SDS011;12897;50.812;4.430;2024-01-11T03:29:38;28.77;;;9.48;;
24799;SDS011;12897;50.812;4.430;2024-01-11T03:32:06;30.60;;;9.08;;
24799;SDS011;12897;50.812;4.430;2024-01-11T03:34:34;32.70;;;10.25;;
24799;SDS011;12897;50.812;4.430;2024-01-11T03:37:03;36.38;;;8.58;;
24799;SDS011;12897;50.812;4.430;2024-01-11T03:42:20;27.90;;;9.83;;
24799;SDS011;12897;50.812;4.430;2024-01-11T03:44:49;24.45;;;10.98;;
24799;SDS011;12897;50.812;4.430;2024-01-11T03:47:17;29.20;;;10.53;;
24799;SDS011;12897;50.812;4.430;2024-01-11T03:49:44;26.15;;;9.80;;
24799;SDS011;12897;50.812;4.430;2024-01-11T03:52:12;24.23;;;8.75;;
24799;SDS011;12897;50.812;4.430;2024-01-11T03:54:39;36.38;;;11.65;;
24799;SDS011;12897;50.812;4.430;2024-01-11T03:57:07;25.02;;;9.55;;
24799;SDS011;12897;50.812;4.430;2024-01-11T03:59:38;33.53;;;10.75;;
24799;SDS011;12897;50.812;4.430;2024-01-11T04:02:06;29.92;;;10.18;;
24799;SDS011;12897;50.812;4.430;2024-01-11T04:04:34;37.73;;;10.68;;
24799;SDS011;12897;50.812;4.430;2024-01-11T04:07:01;19.95;;;9.40;;
24799;SDS011;12897;50.812;4.430;2024-01-11T04:09:29;27.13;;;8.65;;
24799;SDS011;12897;50.812;4.430;2024-01-11T04:11:56;23.07;;;8.50;;
24799;SDS011;12897;50.812;4.430;2024-01-11T04:14:30;34.38;;;10.15;;
24799;SDS011;12897;50.812;4.430;2024-01-11T04:16:58;25.50;;;9.88;;
24799;SDS011;12897;50.812;4.430;2024-01-11T04:19:26;31.95;;;9.13;;
24799;SDS011;12897;50.812;4.430;2024-01-11T04:21:54;40.95;;;10.88;;
24799;SDS011;12897;50.812;4.430;2024-01-11T04:27:10;21.62;;;8.48;;
24799;SDS011;12897;50.812;4.430;2024-01-11T04:29:38;30.32;;;10.03;;
24799;SDS011;12897;50.812;4.430;2024-01-11T04:32:05;31.82;;;11.10;;
24799;SDS011;12897;50.812;4.430;2024-01-11T04:34:35;39.40;;;10.05;;
24799;SDS011;12897;50.812;4.430;2024-01-11T04:37:03;26.07;;;9.18;;
24799;SDS011;12897;50.812;4.430;2024-01-11T04:39:31;26.73;;;10.38;;
24799;SDS011;12897;50.812;4.430;2024-01-11T04:41:58;28.07;;;10.85;;
24799;SDS011;12897;50.812;4.430;2024-01-11T04:44:29;30.80;;;10.63;;
24799;SDS011;12897;50.812;4.430;2024-01-11T04:46:57;32.95;;;9.35;;
24799;SDS011;12897;50.812;4.430;2024-01-11T04:49:24;28.92;;;10.25;;
24799;SDS011;12897;50.812;4.430;2024-01-11T04:51:59;32.67;;;10.25;;
24799;SDS011;12897;50.812;4.430;2024-01-11T04:54:27;36.00;;;10.85;;
24799;SDS011;12897;50.812;4.430;2024-01-11T04:56:54;23.80;;;9.70;;
24799;SDS011;12897;50.812;4.430;2024-01-11T04:59:22;30.10;;;9.95;;
24799;SDS011;12897;50.812;4.430;2024-01-11T05:01:49;25.82;;;8.83;;
24799;SDS011;12897;50.812;4.430;2024-01-11T05:04:17;26.30;;;10.28;;
24799;SDS011;12897;50.812;4.430;2024-01-11T05:06:51;30.97;;;9.98;;
24799;SDS011;12897;50.812;4.430;2024-01-11T05:09:18;33.63;;;9.48;;
24799;SDS011;12897;50.812;4.430;2024-01-11T05:12:01;30.75;;;9.03;;
24799;SDS011;12897;50.812;4.430;2024-01-11T05:14:35;34.25;;;10.95;;
24799;SDS011;12897;50.812;4.430;2024-01-11T05:17:11;26.45;;;9.63;;
24799;SDS011;12897;50.812;4.430;2024-01-11T05:19:41;25.60;;;9.85;;
24799;SDS011;12897;50.812;4.430;2024-01-11T05:22:08;31.42;;;10.90;;
24799;SDS011;12897;50.812;4.430;2024-01-11T05:24:36;30.70;;;11.83;;
24799;SDS011;12897;50.812;4.430;2024-01-11T05:27:04;22.22;;;8.83;;
24799;SDS011;12897;50.812;4.430;2024-01-11T05:32:53;31.65;;;11.53;;
24799;SDS011;12897;50.812;4.430;2024-01-11T05:35:22;23.07;;;9.60;;
24799;SDS011;12897;50.812;4.430;2024-01-11T05:37:51;31.50;;;9.60;;
24799;SDS011;12897;50.812;4.430;2024-01-11T05:40:23;27.45;;;9.73;;
24799;SDS011;12897;50.812;4.430;2024-01-11T05:42:52;36.70;;;10.53;;
24799;SDS011;12897;50.812;4.430;2024-01-11T05:45:20;28.62;;;11.03;;
24799;SDS011;12897;50.812;4.430;2024-01-11T05:47:47;34.63;;;9.63;;
24799;SDS011;12897;50.812;4.430;2024-01-11T05:50:15;22.90;;;8.88;;
24799;SDS011;12897;50.812;4.430;2024-01-11T05:52:43;31.68;;;9.38;;
24799;SDS011;12897;50.812;4.430;2024-01-11T05:55:10;30.30;;;10.08;;
24799;SDS011;12897;50.812;4.430;2024-01-11T05:57:39;22.48;;;9.15;;
24799;SDS011;12897;50.812;4.430;2024-01-11T06:00:07;25.23;;;9.78;;
24799;SDS011;12897;50.812;4.430;2024-01-11T06:02:35;27.90;;;10.53;;
24799;SDS011;12897;50.812;4.430;2024-01-11T06:05:03;27.95;;;11.60;;
24799;SDS011;12897;50.812;4.430;2024-01-11T06:07:33;21.37;;;8.83;;
24799;SDS011;12897;50.812;4.430;2024-01-11T06:10:00;25.62;;;10.25;;
24799;SDS011;12897;50.812;4.430;2024-01-11T06:12:28;34.48;;;10.20;;
24799;SDS011;12897;50.812;4.430;2024-01-11T06:17:44;24.85;;;11.28;;
24799;SDS011;12897;50.812;4.430;2024-01-11T06:20:13;50.63;;;13.13;;
24799;SDS011;12897;50.812;4.430;2024-01-11T06:22:44;29.30;;;10.10;;
24799;SDS011;12897;50.812;4.430;2024-01-11T06:25:11;32.38;;;11.85;;
24799;SDS011;12897;50.812;4.430;2024-01-11T06:27:41;34.92;;;9.90;;
24799;SDS011;12897;50.812;4.430;2024-01-11T06:30:10;37.48;;;11.73;;
24799;SDS011;12897;50.812;4.430;2024-01-11T06:32:40;26.07;;;10.60;;
24799;SDS011;12897;50.812;4.430;2024-01-11T06:35:09;33.80;;;11.60;;
24799;SDS011;12897;50.812;4.430;2024-01-11T06:37:37;31.02;;;11.80;;
24799;SDS011;12897;50.812;4.430;2024-01-11T06:40:06;32.53;;;10.28;;
24799;SDS011;12897;50.812;4.430;2024-01-11T06:42:34;31.62;;;10.88;;
24799;SDS011;12897;50.812;4.430;2024-01-11T06:45:02;33.70;;;11.43;;
24799;SDS011;12897;50.812;4.430;2024-01-11T06:47:31;33.75;;;11.28;;
24799;SDS011;12897;50.812;4.430;2024-01-11T06:50:00;28.02;;;10.05;;
24799;SDS011;12897;50.812;4.430;2024-01-11T06:52:29;27.48;;;9.35;;
24799;SDS011;12897;50.812;4.430;2024-01-11T06:54:57;35.05;;;11.35;;
24799;SDS011;12897;50.812;4.430;2024-01-11T06:57:28;35.92;;;10.43;;
24799;SDS011;12897;50.812;4.430;2024-01-11T06:59:55;31.87;;;11.03;;
24799;SDS011;12897;50.812;4.430;2024-01-11T07:02:23;27.95;;;13.05;;
24799;SDS011;12897;50.812;4.430;2024-01-11T07:04:54;34.15;;;11.10;;
24799;SDS011;12897;50.812;4.430;2024-01-11T07:07:22;34.83;;;12.05;;
24799;SDS011;12897;50.812;4.430;2024-01-11T07:09:52;32.15;;;10.78;;
24799;SDS011;12897;50.812;4.430;2024-01-11T07:12:22;26.50;;;10.95;;
24799;SDS011;12897;50.812;4.430;2024-01-11T07:14:50;37.40;;;10.80;;
24799;SDS011;12897;50.812;4.430;2024-01-11T07:17:17;31.20;;;11.78;;
24799;SDS011;12897;50.812;4.430;2024-01-11T07:19:45;30.43;;;11.57;;
24799;SDS011;12897;50.812;4.430;2024-01-11T07:22:13;33.48;;;12.40;;
24799;SDS011;12897;50.812;4.430;2024-01-11T07:24:40;30.25;;;11.60;;
24799;SDS011;12897;50.812;4.430;2024-01-11T07:27:09;38.27;;;12.27;;
24799;SDS011;12897;50.812;4.430;2024-01-11T07:29:39;40.17;;;11.55;;
24799;SDS011;12897;50.812;4.430;2024-01-11T07:32:06;26.93;;;10.53;;
24799;SDS011;12897;50.812;4.430;2024-01-11T07:34:35;43.55;;;11.83;;
24799;SDS011;12897;50.812;4.430;2024-01-11T07:37:02;43.90;;;11.93;;
24799;SDS011;12897;50.812;4.430;2024-01-11T07:39:30;31.00;;;11.28;;
24799;SDS011;12897;50.812;4.430;2024-01-11T07:41:58;30.75;;;11.05;;
24799;SDS011;12897;50.812;4.430;2024-01-11T07:44:25;26.50;;;9.70;;
24799;SDS011;12897;50.812;4.430;2024-01-11T07:46:53;32.88;;;8.90;;
24799;SDS011;12897;50.812;4.430;2024-01-11T07:49:21;30.52;;;11.68;;
24799;SDS011;12897;50.812;4.430;2024-01-11T07:51:49;31.23;;;12.13;;
24799;SDS011;12897;50.812;4.430;2024-01-11T07:54:17;29.00;;;10.53;;
24799;SDS011;12897;50.812;4.430;2024-01-11T07:56:45;34.43;;;11.53;;
24799;SDS011;12897;50.812;4.430;2024-01-11T07:59:13;27.40;;;11.80;;
24799;SDS011;12897;50.812;4.430;2024-01-11T08:01:42;31.33;;;12.37;;
24799;SDS011;12897;50.812;4.430;2024-01-11T08:04:11;34.38;;;11.08;;
24799;SDS011;12897;50.812;4.430;2024-01-11T08:06:38;33.23;;;11.57;;
24799;SDS011;12897;50.812;4.430;2024-01-11T08:09:08;26.02;;;10.85;;
24799;SDS011;12897;50.812;4.430;2024-01-11T08:11:36;35.05;;;12.10;;
24799;SDS011;12897;50.812;4.430;2024-01-11T08:14:04;27.62;;;10.80;;
24799;SDS011;12897;50.812;4.430;2024-01-11T08:16:32;40.00;;;11.08;;
24799;SDS011;12897;50.812;4.430;2024-01-11T08:19:00;34.23;;;11.93;;
24799;SDS011;12897;50.812;4.430;2024-01-11T08:21:28;28.07;;;11.97;;
24799;SDS011;12897;50.812;4.430;2024-01-11T08:23:57;30.43;;;11.93;;
24799;SDS011;12897;50.812;4.430;2024-01-11T08:26:24;33.67;;;11.00;;
24799;SDS011;12897;50.812;4.430;2024-01-11T08:28:52;33.88;;;12.55;;
24799;SDS011;12897;50.812;4.430;2024-01-11T08:31:20;45.28;;;13.58;;
24799;SDS011;12897;50.812;4.430;2024-01-11T08:33:49;36.65;;;14.00;;
24799;SDS011;12897;50.812;4.430;2024-01-11T08:36:16;34.18;;;13.22;;
24799;SDS011;12897;50.812;4.430;2024-01-11T08:38:44;38.25;;;12.65;;
24799;SDS011;12897;50.812;4.430;2024-01-11T08:41:12;43.50;;;14.20;;
24799;SDS011;12897;50.812;4.430;2024-01-11T08:43:40;42.20;;;14.75;;
24799;SDS011;12897;50.812;4.430;2024-01-11T08:46:08;30.50;;;13.15;;
24799;SDS011;12897;50.812;4.430;2024-01-11T08:48:35;39.45;;;13.45;;
24799;SDS011;12897;50.812;4.430;2024-01-11T08:51:03;37.63;;;13.78;;
24799;SDS011;12897;50.812;4.430;2024-01-11T08:53:31;31.23;;;12.30;;
24799;SDS011;12897;50.812;4.430;2024-01-11T08:55:58;35.43;;;13.15;;
24799;SDS011;12897;50.812;4.430;2024-01-11T08:58:26;40.30;;;13.85;;
24799;SDS011;12897;50.812;4.430;2024-01-11T09:00:53;37.30;;;12.45;;
24799;SDS011;12897;50.812;4.430;2024-01-11T09:03:21;42.53;;;13.83;;
24799;SDS011;12897;50.812;4.430;2024-01-11T09:05:50;32.38;;;12.28;;
24799;SDS011;12897;50.812;4.430;2024-01-11T09:08:17;45.85;;;13.20;;
24799;SDS011;12897;50.812;4.430;2024-01-11T09:10:45;37.38;;;13.68;;
24799;SDS011;12897;50.812;4.430;2024-01-11T09:13:15;35.90;;;12.60;;
24799;SDS011;12897;50.812;4.430;2024-01-11T09:15:43;39.05;;;12.58;;
24799;SDS011;12897;50.812;4.430;2024-01-11T09:18:12;38.70;;;14.13;;
24799;SDS011;12897;50.812;4.430;2024-01-11T09:20:39;40.90;;;12.80;;
24799;SDS011;12897;50.812;4.430;2024-01-11T09:23:07;30.27;;;11.75;;
24799;SDS011;12897;50.812;4.430;2024-01-11T09:25:35;42.90;;;14.00;;
24799;SDS011;12897;50.812;4.430;2024-01-11T09:28:02;44.95;;;15.45;;
24799;SDS011;12897;50.812;4.430;2024-01-11T09:30:36;44.00;;;15.58;;
24799;SDS011;12897;50.812;4.430;2024-01-11T09:33:04;38.35;;;12.28;;
24799;SDS011;12897;50.812;4.430;2024-01-11T09:35:32;45.20;;;13.22;;
24799;SDS011;12897;50.812;4.430;2024-01-11T09:37:59;37.13;;;13.55;;
24799;SDS011;12897;50.812;4.430;2024-01-11T09:40:27;36.45;;;14.30;;
24799;SDS011;12897;50.812;4.430;2024-01-11T09:42:56;36.93;;;13.65;;
24799;SDS011;12897;50.812;4.430;2024-01-11T09:45:24;43.78;;;16.02;;
24799;SDS011;12897;50.812;4.430;2024-01-11T09:47:53;37.55;;;14.35;;
24799;SDS011;12897;50.812;4.430;2024-01-11T09:50:22;37.83;;;13.38;;
24799;SDS011;12897;50.812;4.430;2024-01-11T09:52:51;55.23;;;16.25;;
24799;SDS011;12897;50.812;4.430;2024-01-11T09:55:19;40.43;;;15.05;;
24799;SDS011;12897;50.812;4.430;2024-01-11T09:57:48;38.50;;;13.70;;
24799;SDS011;12897;50.812;4.430;2024-01-11T10:00:19;39.50;;;13.25;;
24799;SDS011;12897;50.812;4.430;2024-01-11T10:02:52;38.45;;;14.28;;
24799;SDS011;12897;50.812;4.430;2024-01-11T10:05:20;39.85;;;14.20;;
24799;SDS011;12897;50.812;4.430;2024-01-11T10:07:47;44.27;;;15.50;;
24799;SDS011;12897;50.812;4.430;2024-01-11T10:10:22;40.75;;;15.68;;
24799;SDS011;12897;50.812;4.430;2024-01-11T10:12:49;38.70;;;14.85;;
24799;SDS011;12897;50.812;4.430;2024-01-11T10:15:18;45.85;;;16.93;;
24799;SDS011;12897;50.812;4.430;2024-01-11T10:17:45;38.45;;;14.98;;
24799;SDS011;12897;50.812;4.430;2024-01-11T10:20:13;35.17;;;12.58;;
24799;SDS011;12897;50.812;4.430;2024-01-11T10:22:43;40.20;;;15.85;;
24799;SDS011;12897;50.812;4.430;2024-01-11T10:25:13;44.08;;;16.07;;
24799;SDS011;12897;50.812;4.430;2024-01-11T10:27:42;45.38;;;16.82;;
24799;SDS011;12897;50.812;4.430;2024-01-11T10:30:13;38.95;;;14.28;;
24799;SDS011;12897;50.812;4.430;2024-01-11T10:32:49;36.98;;;15.43;;
24799;SDS011;12897;50.812;4.430;2024-01-11T10:35:18;27.95;;;11.45;;
24799;SDS011;12897;50.812;4.430;2024-01-11T10:37:46;38.48;;;13.43;;
24799;SDS011;12897;50.812;4.430;2024-01-11T10:40:16;46.50;;;14.47;;
24799;SDS011;12897;50.812;4.430;2024-01-11T10:42:48;40.98;;;14.65;;
24799;SDS011;12897;50.812;4.430;2024-01-11T10:45:17;36.73;;;14.95;;
24799;SDS011;12897;50.812;4.430;2024-01-11T10:47:56;35.07;;;14.67;;
24799;SDS011;12897;50.812;4.430;2024-01-11T10:50:25;39.90;;;14.00;;
24799;SDS011;12897;50.812;4.430;2024-01-11T10:53:04;39.73;;;14.13;;
24799;SDS011;12897;50.812;4.430;2024-01-11T10:55:55;42.40;;;14.85;;
24799;SDS011;12897;50.812;4.430;2024-01-11T10:58:26;47.58;;;15.13;;
24799;SDS011;12897;50.812;4.430;2024-01-11T11:00:55;47.58;;;15.35;;
24799;SDS011;12897;50.812;4.430;2024-01-11T11:03:24;33.63;;;12.13;;
24799;SDS011;12897;50.812;4.430;2024-01-11T11:05:54;34.75;;;15.65;;
24799;SDS011;12897;50.812;4.430;2024-01-11T11:08:22;45.85;;;16.42;;
24799;SDS011;12897;50.812;4.430;2024-01-11T11:10:55;47.20;;;16.42;;
24799;SDS011;12897;50.812;4.430;2024-01-11T11:13:32;55.17;;;17.42;;
24799;SDS011;12897;50.812;4.430;2024-01-11T11:16:03;27.95;;;10.82;;
24799;SDS011;12897;50.812;4.430;2024-01-11T11:18:31;47.30;;;16.50;;
24799;SDS011;12897;50.812;4.430;2024-01-11T11:21:06;41.33;;;15.83;;
24799;SDS011;12897;50.812;4.430;2024-01-11T11:23:38;37.30;;;14.90;;
24799;SDS011;12897;50.812;4.430;2024-01-11T11:26:06;53.38;;;15.68;;
24799;SDS011;12897;50.812;4.430;2024-01-11T11:31:05;36.55;;;13.80;;
24799;SDS011;12897;50.812;4.430;2024-01-11T11:33:33;41.40;;;14.28;;
24799;SDS011;12897;50.812;4.430;2024-01-11T11:36:02;36.70;;;15.00;;
24799;SDS011;12897;50.812;4.430;2024-01-11T11:38:30;38.23;;;14.68;;
24799;SDS011;12897;50.812;4.430;2024-01-11T11:40:59;56.83;;;15.20;;
24799;SDS011;12897;50.812;4.430;2024-01-11T11:43:28;42.65;;;15.53;;
24799;SDS011;12897;50.812;4.430;2024-01-11T11:45:58;37.10;;;15.05;;
24799;SDS011;12897;50.812;4.430;2024-01-11T11:51:11;44.58;;;15.68;;
24799;SDS011;12897;50.812;4.430;2024-01-11T11:53:41;39.75;;;15.10;;
24799;SDS011;12897;50.812;4.430;2024-01-11T11:56:09;36.65;;;14.10;;
24799;SDS011;12897;50.812;4.430;2024-01-11T11:58:38;42.17;;;15.60;;
24799;SDS011;12897;50.812;4.430;2024-01-11T12:01:06;37.03;;;14.15;;
24799;SDS011;12897;50.812;4.430;2024-01-11T12:03:35;38.90;;;13.43;;
24799;SDS011;12897;50.812;4.430;2024-01-11T12:06:04;46.08;;;15.63;;
24799;SDS011;12897;50.812;4.430;2024-01-11T12:11:01;35.78;;;12.93;;
24799;SDS011;12897;50.812;4.430;2024-01-11T12:13:31;38.63;;;13.75;;
24799;SDS011;12897;50.812;4.430;2024-01-11T12:15:59;32.10;;;12.75;;
24799;SDS011;12897;50.812;4.430;2024-01-11T12:18:26;35.70;;;12.33;;
24799;SDS011;12897;50.812;4.430;2024-01-11T12:20:54;35.10;;;13.13;;
24799;SDS011;12897;50.812;4.430;2024-01-11T12:23:22;40.40;;;14.85;;
24799;SDS011;12897;50.812;4.430;2024-01-11T12:25:50;31.90;;;11.48;;
24799;SDS011;12897;50.812;4.430;2024-01-11T12:28:18;29.02;;;9.65;;
24799;SDS011;12897;50.812;4.430;2024-01-11T12:30:46;33.00;;;10.78;;
24799;SDS011;12897;50.812;4.430;2024-01-11T12:33:14;32.50;;;12.28;;
24799;SDS011;12897;50.812;4.430;2024-01-11T12:35:43;42.25;;;12.90;;
24799;SDS011;12897;50.812;4.430;2024-01-11T12:38:11;33.45;;;12.43;;
24799;SDS011;12897;50.812;4.430;2024-01-11T12:40:39;36.90;;;13.00;;
24799;SDS011;12897;50.812;4.430;2024-01-11T12:43:07;37.70;;;12.82;;
24799;SDS011;12897;50.812;4.430;2024-01-11T12:45:35;34.50;;;12.10;;
24799;SDS011;12897;50.812;4.430;2024-01-11T12:48:06;32.65;;;12.25;;
24799;SDS011;12897;50.812;4.430;2024-01-11T12:50:34;35.58;;;11.83;;
24799;SDS011;12897;50.812;4.430;2024-01-11T12:53:12;42.70;;;13.32;;
24799;SDS011;12897;50.812;4.430;2024-01-11T12:55:44;28.47;;;10.08;;
24799;SDS011;12897;50.812;4.430;2024-01-11T12:58:19;44.58;;;11.50;;
24799;SDS011;12897;50.812;4.430;2024-01-11T13:00:47;29.82;;;12.98;;
24799;SDS011;12897;50.812;4.430;2024-01-11T13:03:15;33.30;;;11.85;;
24799;SDS011;12897;50.812;4.430;2024-01-11T13:05:45;37.98;;;12.78;;
24799;SDS011;12897;50.812;4.430;2024-01-11T13:08:14;31.75;;;11.73;;
24799;SDS011;12897;50.812;4.430;2024-01-11T13:10:41;27.50;;;9.43;;
24799;SDS011;12897;50.812;4.430;2024-01-11T13:13:10;39.27;;;12.00;;
24799;SDS011;12897;50.812;4.430;2024-01-11T13:15:37;33.18;;;12.18;;
24799;SDS011;12897;50.812;4.430;2024-01-11T13:18:05;32.98;;;10.13;;
24799;SDS011;12897;50.812;4.430;2024-01-11T13:20:33;18.82;;;9.65;;
24799;SDS011;12897;50.812;4.430;2024-01-11T13:23:13;27.30;;;10.98;;
24799;SDS011;12897;50.812;4.430;2024-01-11T13:25:42;23.83;;;10.48;;
24799;SDS011;12897;50.812;4.430;2024-01-11T13:28:10;26.52;;;11.20;;
24799;SDS011;12897;50.812;4.430;2024-01-11T13:30:38;26.00;;;11.18;;
24799;SDS011;12897;50.812;4.430;2024-01-11T13:33:07;27.65;;;11.28;;
24799;SDS011;12897;50.812;4.430;2024-01-11T13:35:38;29.95;;;11.20;;
24799;SDS011;12897;50.812;4.430;2024-01-11T13:38:06;25.15;;;10.55;;
24799;SDS011;12897;50.812;4.430;2024-01-11T13:40:34;22.85;;;9.33;;
24799;SDS011;12897;50.812;4.430;2024-01-11T13:43:02;28.38;;;10.68;;
24799;SDS011;12897;50.812;4.430;2024-01-11T13:45:30;25.02;;;11.12;;
24799;SDS011;12897;50.812;4.430;2024-01-11T13:47:58;22.07;;;8.90;;
24799;SDS011;12897;50.812;4.430;2024-01-11T13:50:26;28.85;;;11.83;;
24799;SDS011;12897;50.812;4.430;2024-01-11T13:52:53;25.20;;;10.53;;
24799;SDS011;12897;50.812;4.430;2024-01-11T13:55:21;31.57;;;11.63;;
24799;SDS011;12897;50.812;4.430;2024-01-11T13:57:52;21.82;;;9.53;;
24799;SDS011;12897;50.812;4.430;2024-01-11T14:00:20;22.82;;;9.65;;
24799;SDS011;12897;50.812;4.430;2024-01-11T14:02:48;28.73;;;11.45;;
24799;SDS011;12897;50.812;4.430;2024-01-11T14:05:16;31.17;;;10.60;;
24799;SDS011;12897;50.812;4.430;2024-01-11T14:07:43;25.12;;;9.08;;
24799;SDS011;12897;50.812;4.430;2024-01-11T14:10:11;23.83;;;10.25;;
24799;SDS011;12897;50.812;4.430;2024-01-11T14:12:40;23.47;;;9.73;;
24799;SDS011;12897;50.812;4.430;2024-01-11T14:15:08;25.72;;;10.20;;
24799;SDS011;12897;50.812;4.430;2024-01-11T14:17:39;28.20;;;11.12;;
24799;SDS011;12897;50.812;4.430;2024-01-11T14:20:07;27.22;;;11.15;;
24799;SDS011;12897;50.812;4.430;2024-01-11T14:22:37;35.92;;;11.05;;
24799;SDS011;12897;50.812;4.430;2024-01-11T14:25:05;26.62;;;10.53;;
24799;SDS011;12897;50.812;4.430;2024-01-11T14:27:34;22.25;;;9.13;;
24799;SDS011;12897;50.812;4.430;2024-01-11T14:30:01;27.62;;;10.78;;
24799;SDS011;12897;50.812;4.430;2024-01-11T14:32:32;26.20;;;10.10;;
24799;SDS011;12897;50.812;4.430;2024-01-11T14:35:00;32.17;;;10.45;;
24799;SDS011;12897;50.812;4.430;2024-01-11T14:37:33;23.83;;;10.18;;
24799;SDS011;12897;50.812;4.430;2024-01-11T14:40:01;23.02;;;9.10;;
24799;SDS011;12897;50.812;4.430;2024-01-11T14:42:29;23.12;;;9.00;;
24799;SDS011;12897;50.812;4.430;2024-01-11T14:44:56;24.18;;;9.58;;
24799;SDS011;12897;50.812;4.430;2024-01-11T14:47:26;23.70;;;9.70;;
24799;SDS011;12897;50.812;4.430;2024-01-11T14:49:54;25.72;;;10.38;;
24799;SDS011;12897;50.812;4.430;2024-01-11T14:52:22;29.45;;;9.93;;
24799;SDS011;12897;50.812;4.430;2024-01-11T14:54:49;26.45;;;10.05;;
24799;SDS011;12897;50.812;4.430;2024-01-11T14:57:17;21.52;;;8.58;;
24799;SDS011;12897;50.812;4.430;2024-01-11T14:59:47;24.70;;;10.85;;
24799;SDS011;12897;50.812;4.430;2024-01-11T15:02:14;31.20;;;10.90;;
24799;SDS011;12897;50.812;4.430;2024-01-11T15:04:42;30.80;;;10.55;;